메인 페이지
METAR-TAF:

METAR-TAF

공항 :

Joplin Regional Airport

Joplin, 미주리, 미국

위도: 37-09-22N, 경도: 094-30-02W, 고도: 299m

현재 날씨관측

예보는 11분 전, 10:53시(UTC)에 발표되었습니다.
북북동8kt
온도 3°C
습도 93%
기압 1018 hPa
시정: 4.8km
고도 300ft 상공 흐림
박무

METAR: KJLN 281053Z 03008KT 3SM BR OVC003 03/02 A3005 RMK AO2 PRESFR SLP181 T00330022

시각: 06:04 (11:04 UTC)

예보

예보는 5 시간 44분 전, 05:20시(UTC)에 발표되었습니다.
예보 대상 시간: 28일 06시부터 29일 06시까지 (UTC)
북동5kt
시정: 10km
고도 1000ft 상공 흐림
일시적
28일 06시부터 28일 10시까지 (UTC)
시정: 4.8km
고도 500ft 상공 흐림
박무
28일 1200시부터 (UTC)
북북동6kt
시정: 10km
고도 400ft 상공 흐림
시계 내 소나기
28일 1700시부터 (UTC)
북북동8kt
시정: 6.4km
고도 700ft 상공 흐림
소나기, 박무
28일 2200시부터 (UTC)
북동10kt, 순간 최대 풍속 18kt
시정: 3.2km
고도 600ft 상공 흐림
소나기, 박무

TAF: KJLN 280520Z 2806/2906 04005KT P6SM OVC010 TEMPO 2806/2810 3SM BR OVC005 FM281200 03006KT P6SM VCSH OVC004 FM281700 03008KT 4SM SHRA BR OVC007 FM282200 04010G18KT 2SM SHRA BR OVC006

4,000개 이상의 공항 관측 자료 및 예보 (METAR 및 TAF 보고).

지도상에서 검색 가능한 기상관측소가 노란 점과 빨간 점으로 표시되어 있습니다.

기상관측소 명을 보려면 표시 위로 마우스를 이동하세요.

날씨 관측과 예보를 보려면 클릭하세요.

지도 변경 : 확대하려면 엑스 표시가 있는 녹색 버튼, 축소하려면 빼기 표시가 있는 녹색 버튼, 다음 페이지의 지도를 보려면 녹색 화살표를 클릭하세요.


METAR-TAF: